Time;durP1;ratioP1;P1;durP2;ratioP2;P2;SDS_P1;SDS_P2;PMS_P1;PMS_P2;Temp;Humidity;BMP_temperature;BMP_pressure;BME280_temperature;BME280_humidity;BME280_pressure;Samples;Min_cycle;Max_cycle;Signal;HPM_P1;HPM_P2
2022/05/09 00:01:41;;;;;;;10.88;6.82;;;14.40;99.90;;;;;;5050528;28;20032;-72
2022/05/09 00:04:45;;;;;;;14.30;6.75;;;14.30;99.90;;;;;;5050048;28;20048;-72
2022/05/09 00:07:49;;;;;;;10.75;7.50;;;14.20;99.90;;;;;;5050032;28;20048;-71
2022/05/09 00:10:53;;;;;;;20.45;8.68;;;14.20;99.90;;;;;;5050454;28;20036;-72
2022/05/09 00:13:58;;;;;;;19.65;9.75;;;14.10;99.90;;;;;;5050334;28;20044;-72
2022/05/09 00:17:02;;;;;;;12.07;7.32;;;14.00;99.90;;;;;;5049285;28;20048;-72
2022/05/09 00:20:07;;;;;;;14.13;7.80;;;14.00;99.90;;;;;;5049871;28;20063;-71
2022/05/09 00:23:11;;;;;;;13.88;7.57;;;14.00;99.90;;;;;;5050118;28;20040;-73
2022/05/09 00:26:14;;;;;;;17.17;7.97;;;14.00;99.90;;;;;;5049365;28;20068;-71
2022/05/09 00:29:23;;;;;;;11.73;7.57;;;14.00;99.90;;;;;;5049866;28;20044;-72
2022/05/09 00:32:27;;;;;;;13.60;8.02;;;14.10;99.90;;;;;;5049822;28;20044;-72
2022/05/09 00:35:31;;;;;;;14.07;7.57;;;14.10;99.90;;;;;;5049915;28;20048;-73
2022/05/09 00:38:35;;;;;;;12.20;7.22;;;14.20;99.90;;;;;;5049889;28;20045;-72
2022/05/09 00:41:42;;;;;;;15.15;8.25;;;14.20;99.90;;;;;;5050013;28;20048;-72
2022/05/09 00:44:46;;;;;;;13.23;7.43;;;14.20;99.90;;;;;;5049687;28;20064;-72
2022/05/09 00:47:50;;;;;;;11.38;7.28;;;14.20;99.90;;;;;;5049548;28;20498;-71
2022/05/09 00:50:55;;;;;;;13.20;6.82;;;14.20;99.90;;;;;;5049598;28;20047;-72
2022/05/09 00:54:03;;;;;;;13.05;6.63;;;14.20;99.90;;;;;;5049871;28;20060;-72
2022/05/09 00:57:16;;;;;;;11.63;7.35;;;14.20;99.90;;;;;;5051539;28;20052;-72
2022/05/09 01:00:23;;;;;;;11.73;7.20;;;14.20;99.90;;;;;;5053412;28;20040;-72
2022/05/09 01:03:40;;;;;;;10.98;7.47;;;14.10;99.90;;;;;;5053158;28;20040;-71
2022/05/09 01:06:44;;;;;;;13.80;7.53;;;14.10;99.90;;;;;;5053163;28;20060;-72
2022/05/09 01:09:48;;;;;;;12.63;7.93;;;14.10;99.90;;;;;;5052940;28;20048;-72
2022/05/09 01:12:52;;;;;;;11.57;8.07;;;14.10;99.90;;;;;;5053216;28;20052;-72
2022/05/09 01:15:58;;;;;;;12.68;7.78;;;14.10;99.90;;;;;;5053069;28;20044;-72
2022/05/09 01:19:14;;;;;;;16.48;8.05;;;14.10;99.90;;;;;;5052921;28;20051;-72
2022/05/09 01:22:28;;;;;;;13.57;7.80;;;14.10;99.90;;;;;;5053057;28;20040;-72
2022/05/09 01:25:32;;;;;;;15.93;8.57;;;14.10;99.90;;;;;;5053041;28;20048;-71
2022/05/09 01:28:36;;;;;;;17.58;10.10;;;14.10;99.90;;;;;;5052271;28;20039;-72
2022/05/09 01:31:43;;;;;;;14.02;8.32;;;13.90;99.90;;;;;;5052192;28;20511;-72
2022/05/09 01:34:55;;;;;;;12.25;7.65;;;13.80;99.90;;;;;;5052343;28;20048;-72
2022/05/09 01:38:15;;;;;;;16.67;7.68;;;13.70;99.90;;;;;;5052467;28;20090;-72
2022/05/09 01:41:18;;;;;;;13.98;7.93;;;13.80;99.90;;;;;;5052134;28;20055;-72
2022/05/09 01:44:23;;;;;;;16.52;8.48;;;13.80;99.90;;;;;;5051537;28;20048;-72
2022/05/09 01:50:49;;;;;;;11.30;8.30;;;14.00;99.90;;;;;;5052253;28;20518;-71
2022/05/09 01:53:53;;;;;;;13.85;8.18;;;14.10;99.90;;;;;;5052337;28;20056;-72
2022/05/09 01:56:57;;;;;;;14.55;8.93;;;14.10;99.90;;;;;;5051763;28;20048;-72
2022/05/09 02:00:04;;;;;;;13.88;10.63;;;14.20;99.90;;;;;;5052511;28;20044;-72
2022/05/09 02:03:19;;;;;;;18.25;9.50;;;14.20;99.90;;;;;;5052150;28;20044;-71
2022/05/09 02:06:23;;;;;;;17.20;11.75;;;14.30;99.90;;;;;;5051489;28;20087;-72
2022/05/09 02:09:27;;;;;;;16.50;9.18;;;14.20;99.90;;;;;;5051253;28;20044;-71
2022/05/09 02:12:31;;;;;;;12.38;8.30;;;13.80;99.90;;;;;;5051785;28;20043;-71
2022/05/09 02:15:37;;;;;;;16.33;8.93;;;13.80;99.90;;;;;;5051766;28;20040;-72
2022/05/09 02:18:41;;;;;;;11.07;7.63;;;13.70;99.90;;;;;;5051478;28;20075;-72
2022/05/09 02:21:45;;;;;;;16.70;9.40;;;13.70;99.90;;;;;;5051735;28;20039;-71
2022/05/09 02:24:48;;;;;;;15.00;8.45;;;13.70;99.90;;;;;;5051560;28;20044;-72
2022/05/09 02:27:59;;;;;;;13.93;8.40;;;13.70;99.90;;;;;;5051298;28;20095;-71
2022/05/09 02:31:02;;;;;;;14.77;8.60;;;13.60;99.90;;;;;;5051498;28;20412;-73
2022/05/09 02:34:07;;;;;;;17.48;8.75;;;13.70;99.90;;;;;;5051586;28;20111;-71
2022/05/09 02:37:11;;;;;;;13.52;8.85;;;13.70;99.90;;;;;;5050785;28;20044;-72
2022/05/09 02:40:17;;;;;;;14.75;8.80;;;13.70;99.90;;;;;;5051367;28;20056;-72
2022/05/09 02:43:21;;;;;;;19.05;9.25;;;13.80;99.90;;;;;;5051360;28;20044;-73
2022/05/09 02:46:25;;;;;;;13.82;8.48;;;13.80;99.90;;;;;;5051372;28;20052;-72
2022/05/09 02:49:29;;;;;;;11.13;7.82;;;13.90;99.90;;;;;;5051500;28;20052;-72
2022/05/09 02:52:34;;;;;;;13.07;8.43;;;13.90;99.90;;;;;;5051292;28;20051;-72
2022/05/09 02:55:38;;;;;;;12.77;8.63;;;13.90;99.90;;;;;;5051141;28;20048;-72
2022/05/09 02:58:41;;;;;;;11.98;8.75;;;13.90;99.90;;;;;;5051257;28;20395;-72
2022/05/09 03:01:45;;;;;;;13.10;9.27;;;14.00;99.90;;;;;;5051190;28;20490;-72
2022/05/09 03:04:49;;;;;;;17.75;9.27;;;14.00;99.90;;;;;;5050778;28;20040;-72
2022/05/09 03:07:53;;;;;;;14.15;9.93;;;14.00;99.90;;;;;;5050769;28;20052;-72
2022/05/09 03:10:57;;;;;;;16.52;10.63;;;14.10;99.90;;;;;;5050136;28;20391;-72
2022/05/09 03:14:01;;;;;;;16.17;9.48;;;14.10;99.90;;;;;;5050837;28;20047;-71
2022/05/09 03:17:07;;;;;;;16.70;9.45;;;14.10;99.90;;;;;;5050183;28;20056;-71
2022/05/09 03:20:11;;;;;;;20.38;10.15;;;14.10;99.90;;;;;;5050457;28;20047;-72
2022/05/09 03:23:15;;;;;;;17.75;10.52;;;14.20;99.90;;;;;;5050533;28;20515;-72
2022/05/09 03:26:19;;;;;;;16.45;10.35;;;14.10;99.90;;;;;;5050498;28;20400;-72
2022/05/09 03:29:24;;;;;;;18.25;10.88;;;14.10;99.90;;;;;;5050326;28;20052;-72
2022/05/09 03:32:27;;;;;;;16.83;11.10;;;14.00;99.90;;;;;;5050678;28;20105;-72
2022/05/09 03:35:32;;;;;;;22.08;10.88;;;13.90;99.90;;;;;;5050395;28;20310;-71
2022/05/09 03:38:38;;;;;;;16.73;10.68;;;14.00;99.90;;;;;;5050146;28;20053;-72
2022/05/09 03:41:42;;;;;;;16.67;10.73;;;13.90;99.90;;;;;;5050666;28;20491;-72
2022/05/09 03:44:46;;;;;;;16.63;12.18;;;13.80;99.90;;;;;;5050842;28;20056;-73
2022/05/09 03:47:50;;;;;;;18.27;11.20;;;13.70;99.90;;;;;;5050267;28;20052;-72
2022/05/09 03:50:56;;;;;;;16.13;11.35;;;13.70;99.90;;;;;;5050348;28;20060;-72
2022/05/09 03:54:00;;;;;;;19.27;11.98;;;13.60;99.90;;;;;;5050258;28;20044;-73
2022/05/09 03:57:05;;;;;;;17.88;11.90;;;13.60;99.90;;;;;;5049614;28;20044;-72
2022/05/09 04:00:09;;;;;;;19.73;13.27;;;13.60;99.90;;;;;;5050191;28;20048;-70
2022/05/09 04:03:20;;;;;;;18.50;12.15;;;13.60;99.90;;;;;;5050419;28;20056;-72
2022/05/09 04:06:26;;;;;;;18.88;12.27;;;13.60;99.90;;;;;;5049889;28;20067;-72
2022/05/09 04:09:32;;;;;;;20.13;12.07;;;13.60;99.90;;;;;;5050387;28;20052;-71
2022/05/09 04:12:36;;;;;;;22.20;12.27;;;13.60;99.90;;;;;;5050387;28;20302;-72
2022/05/09 04:19:06;;;;;;;23.88;12.90;;;13.60;99.90;;;;;;5049567;28;20056;-72
2022/05/09 04:22:10;;;;;;;23.92;11.55;;;13.30;99.90;;;;;;5050245;28;20044;-72
2022/05/09 04:25:15;;;;;;;15.32;11.13;;;13.20;99.90;;;;;;5050456;28;20122;-71
2022/05/09 04:28:22;;;;;;;22.50;12.45;;;13.20;99.90;;;;;;5048947;28;20044;-72
2022/05/09 04:31:30;;;;;;;19.48;12.05;;;13.30;99.90;;;;;;5050882;28;20044;-71
2022/05/09 04:34:34;;;;;;;19.05;12.02;;;13.50;99.90;;;;;;5053928;28;20048;-71
2022/05/09 04:37:40;;;;;;;15.98;10.57;;;13.60;99.90;;;;;;5052543;28;20487;-72
2022/05/09 04:40:44;;;;;;;19.60;12.23;;;13.70;99.90;;;;;;5053109;28;20040;-73
2022/05/09 04:43:48;;;;;;;21.27;13.20;;;13.80;99.90;;;;;;5053539;28;20052;-72
2022/05/09 04:46:52;;;;;;;21.17;12.30;;;14.00;99.90;;;;;;5053468;28;20052;-72
2022/05/09 04:49:57;;;;;;;23.77;11.88;;;14.20;99.90;;;;;;5053512;28;20052;-71
2022/05/09 04:53:01;;;;;;;17.17;11.20;;;14.50;99.90;;;;;;5053523;28;20388;-72
2022/05/09 04:56:06;;;;;;;16.90;11.40;;;14.70;99.90;;;;;;5052683;28;20052;-71
2022/05/09 04:59:09;;;;;;;16.80;11.07;;;14.90;99.90;;;;;;5052265;28;20040;-72
2022/05/09 05:02:13;;;;;;;18.08;10.65;;;15.10;99.90;;;;;;5053050;28;20044;-72
2022/05/09 05:05:17;;;;;;;22.65;11.63;;;15.40;99.90;;;;;;5051987;28;20036;-72
2022/05/09 05:08:23;;;;;;;20.83;13.07;;;15.40;99.90;;;;;;5052608;28;20137;-72
2022/05/09 05:11:27;;;;;;;19.77;13.25;;;15.20;99.90;;;;;;5051943;28;20403;-72
2022/05/09 05:14:31;;;;;;;18.52;12.05;;;15.50;99.90;;;;;;5052386;28;20056;-72
2022/05/09 05:17:36;;;;;;;19.30;11.57;;;15.90;99.90;;;;;;5051981;28;20052;-73
2022/05/09 05:20:40;;;;;;;18.67;12.57;;;16.60;99.90;;;;;;5052597;28;20423;-72
2022/05/09 05:23:44;;;;;;;18.23;10.93;;;16.90;99.90;;;;;;5052407;28;20036;-72
2022/05/09 05:26:48;;;;;;;20.40;11.07;;;16.80;99.90;;;;;;5051969;28;20067;-72
2022/05/09 05:29:57;;;;;;;16.45;9.80;;;17.30;99.90;;;;;;5039829;28;20070;-71
2022/05/09 05:33:02;;;;;;;17.27;10.02;;;18.40;99.90;;;;;;5052489;28;20048;-73
2022/05/09 05:36:06;;;;;;;14.43;9.25;;;19.70;99.90;;;;;;5051708;28;20052;-72
2022/05/09 05:39:15;;;;;;;17.20;9.45;;;19.70;99.90;;;;;;5052420;28;20250;-72
2022/05/09 05:42:21;;;;;;;18.63;9.90;;;20.70;99.90;;;;;;5051297;28;20056;-72
2022/05/09 05:45:25;;;;;;;13.80;8.02;;;21.50;99.90;;;;;;5052298;28;20044;-72
2022/05/09 05:48:29;;;;;;;13.88;7.32;;;21.30;99.90;;;;;;5039608;28;20113;-72
2022/05/09 05:51:33;;;;;;;17.90;8.50;;;22.90;99.90;;;;;;5052237;28;20067;-72
2022/05/09 05:54:43;;;;;;;9.93;7.80;;;22.60;99.90;;;;;;5051869;28;20530;-72
2022/05/09 05:57:48;;;;;;;12.35;6.65;;;22.40;99.90;;;;;;5051526;28;20059;-72
2022/05/09 06:00:51;;;;;;;9.98;7.50;;;24.00;99.90;;;;;;5051815;28;20055;-72
2022/05/09 06:03:56;;;;;;;15.77;8.35;;;25.60;99.90;;;;;;5051784;28;20047;-72
2022/05/09 06:07:00;;;;;;;13.48;7.05;;;26.40;99.90;;;;;;5051652;28;20052;-72
2022/05/09 06:10:06;;;;;;;7.38;6.50;;;27.60;99.90;;;;;;5051739;28;20048;-73
2022/05/09 06:13:11;;;;;;;12.52;6.45;;;26.40;99.90;;;;;;5051345;28;20044;-72
2022/05/09 06:16:14;;;;;;;12.55;6.78;;;27.40;99.80;;;;;;5051373;28;20052;-73
2022/05/09 06:19:19;;;;;;;11.05;6.70;;;24.70;99.90;;;;;;5049243;28;20036;-72
2022/05/09 06:22:23;;;;;;;11.23;6.43;;;25.90;99.90;;;;;;5043322;28;20475;-72
2022/05/09 06:25:30;;;;;;;12.32;6.90;;;27.20;99.40;;;;;;5041841;28;20052;-72
2022/05/09 06:28:34;;;;;;;10.55;5.60;;;27.80;98.40;;;;;;5035552;28;20040;-72
2022/05/09 06:31:38;;;;;;;10.07;6.25;;;27.60;98.10;;;;;;5050271;28;20063;-72
2022/05/09 06:34:42;;;;;;;8.20;5.95;;;26.90;98.20;;;;;;5050961;28;20036;-73
2022/05/09 06:37:48;;;;;;;10.75;6.43;;;26.00;99.00;;;;;;5046902;28;20048;-73
2022/05/09 06:40:53;;;;;;;10.73;6.68;;;25.60;99.60;;;;;;5048390;28;20032;-73
2022/05/09 06:43:58;;;;;;;10.90;6.05;;;25.80;99.70;;;;;;5049457;28;20040;-72
2022/05/09 06:47:04;;;;;;;8.40;5.80;;;27.00;98.70;;;;;;5049562;28;20527;-71
2022/05/09 06:50:08;;;;;;;11.75;6.03;;;27.20;98.30;;;;;;5049798;28;20048;-72
2022/05/09 06:53:12;;;;;;;17.73;7.68;;;26.60;98.40;;;;;;5043589;28;20048;-72
2022/05/09 06:56:16;;;;;;;9.30;6.25;;;25.90;99.20;;;;;;5041838;28;20474;-72
2022/05/09 06:59:20;;;;;;;9.35;6.35;;;25.20;99.60;;;;;;5040287;28;20403;-71
2022/05/09 07:02:24;;;;;;;12.20;6.43;;;25.50;99.80;;;;;;5053283;28;20577;-70
2022/05/09 07:05:28;;;;;;;12.70;5.90;;;25.90;99.90;;;;;;5053864;28;20411;-71
2022/05/09 07:08:33;;;;;;;10.35;5.57;;;26.20;98.80;;;;;;5043929;28;20047;-71
2022/05/09 07:11:38;;;;;;;10.30;6.18;;;25.70;99.70;;;;;;5050131;28;20052;-71
2022/05/09 07:14:42;;;;;;;11.02;7.22;;;25.00;99.90;;;;;;5049240;28;20048;-70
2022/05/09 07:17:50;;;;;;;11.77;6.93;;;23.10;99.90;;;;;;5041342;28;20056;-72
2022/05/09 07:20:56;;;;;;;12.40;7.50;;;22.70;99.90;;;;;;5044585;28;20049;-71
2022/05/09 07:24:00;;;;;;;7.53;5.80;;;22.70;99.90;;;;;;5037601;28;20062;-71
2022/05/09 07:27:04;;;;;;;10.48;6.75;;;23.00;99.90;;;;;;5046399;28;20503;-70
2022/05/09 07:30:15;;;;;;;12.40;7.25;;;23.10;99.90;;;;;;5039898;28;20044;-71
2022/05/09 07:33:20;;;;;;;12.95;7.20;;;23.10;99.90;;;;;;5046975;28;20502;-71
2022/05/09 07:36:24;;;;;;;9.60;7.05;;;23.10;99.90;;;;;;5043844;28;20067;-71
2022/05/09 07:39:31;;;;;;;10.98;7.10;;;23.00;99.90;;;;;;5053179;28;20040;-71
2022/05/09 07:42:35;;;;;;;9.43;6.50;;;23.10;99.90;;;;;;5049858;28;20041;-71
2022/05/09 07:45:39;;;;;;;9.68;6.78;;;23.20;99.90;;;;;;5046551;28;20045;-71
2022/05/09 07:48:43;;;;;;;14.45;7.53;;;23.20;99.90;;;;;;5056961;28;20044;-71
2022/05/09 07:51:47;;;;;;;12.95;7.22;;;23.20;99.90;;;;;;5052706;28;20401;-71
2022/05/09 07:54:51;;;;;;;9.10;6.95;;;23.30;99.90;;;;;;5039207;28;20048;-72
2022/05/09 07:57:55;;;;;;;9.88;6.40;;;23.60;99.90;;;;;;5042111;28;20043;-71
2022/05/09 08:01:01;;;;;;;12.50;7.40;;;23.60;99.90;;;;;;5046908;28;20380;-72
2022/05/09 08:04:06;;;;;;;12.95;7.03;;;22.80;99.90;;;;;;5048156;28;20060;-71
2022/05/09 08:07:10;;;;;;;10.73;7.10;;;21.70;99.90;;;;;;5045680;28;20056;-71
2022/05/09 08:10:17;;;;;;;12.60;8.00;;;22.50;99.90;;;;;;5049917;28;20047;-71
2022/05/09 08:13:22;;;;;;;12.55;7.18;;;23.00;99.90;;;;;;5052068;28;20048;-71
2022/05/09 08:16:29;;;;;;;18.35;6.68;;;23.70;99.90;;;;;;5047167;28;20044;-72
2022/05/09 08:19:34;;;;;;;12.63;6.47;;;24.20;99.90;;;;;;5061531;28;20048;-71
2022/05/09 08:22:38;;;;;;;14.73;6.75;;;24.60;99.90;;;;;;5051936;28;20108;-71
2022/05/09 08:25:44;;;;;;;10.30;6.85;;;24.50;99.90;;;;;;5049883;28;20045;-72
2022/05/09 08:28:53;;;;;;;12.80;6.50;;;24.60;99.90;;;;;;5048400;28;20060;-72
2022/05/09 08:31:57;;;;;;;20.33;6.80;;;24.50;99.90;;;;;;5051639;28;20494;-72
2022/05/09 08:35:04;;;;;;;10.05;6.55;;;24.40;99.90;;;;;;5050515;28;20109;-72
2022/05/09 08:38:08;;;;;;;13.23;6.45;;;24.40;99.90;;;;;;5051973;28;20060;-72
2022/05/09 08:41:16;;;;;;;10.60;6.55;;;24.10;99.40;;;;;;5055680;28;20090;-71
2022/05/09 08:44:41;;;;;;;14.15;6.30;;;24.30;99.90;;;;;;5062600;28;20051;-72
2022/05/09 08:48:05;;;;;;;14.02;6.18;;;24.50;99.90;;;;;;5044260;28;20032;-71
2022/05/09 08:51:19;;;;;;;11.73;7.10;;;24.80;99.90;;;;;;5051414;28;20052;-73
2022/05/09 08:54:26;;;;;;;13.80;6.03;;;25.10;99.90;;;;;;5045778;28;20052;-72
2022/05/09 08:57:38;;;;;;;11.10;7.45;;;25.60;99.90;;;;;;5039055;28;20056;-71
2022/05/09 09:00:42;;;;;;;;;;;26.40;99.90;;;;;;5050312;28;20044;-71
2022/05/09 09:04:21;;;;;;;13.50;6.18;;;26.50;99.90;;;;;;5050428;28;19909;-71
2022/05/09 09:07:49;;;;;;;10.85;6.30;;;27.00;98.70;;;;;;5041039;28;21335;-72
2022/05/09 09:11:22;;;;;;;14.57;4.75;;;28.50;98.20;;;;;;5046826;28;20060;-73
2022/05/09 09:14:36;;;;;;;12.40;4.90;;;30.90;93.70;;;;;;5051265;28;20040;-70
2022/05/09 09:17:59;;;;;;;18.67;6.90;;;30.20;91.50;;;;;;5041591;28;20060;-71
2022/05/09 09:21:11;;;;;;;11.80;4.70;;;29.70;91.20;;;;;;5048693;28;20060;-70
2022/05/09 09:24:36;;;;;;;10.13;4.80;;;29.00;91.20;;;;;;5063182;28;20071;-74
2022/05/09 09:28:09;;;;;;;30.55;8.80;;;28.90;91.60;;;;;;5061815;28;20044;-73
2022/05/09 09:31:18;;;;;;;14.10;5.38;;;30.90;89.80;;;;;;5053130;28;20047;-71
2022/05/09 09:34:34;;;;;;;12.13;4.68;;;30.30;88.30;;;;;;5032989;28;20408;-71
2022/05/09 09:37:53;;;;;;;21.98;7.20;;;28.50;90.00;;;;;;5048859;28;20048;-73
2022/05/09 09:41:20;;;;;;;13.73;5.60;;;26.50;91.50;;;;;;5048780;28;20047;-73
2022/05/09 09:44:26;;;;;;;10.25;5.10;;;27.30;92.30;;;;;;5033049;28;20055;-71
2022/05/09 09:47:30;;;;;;;12.88;4.95;;;29.30;90.70;;;;;;5058835;28;20052;-72
2022/05/09 09:50:35;;;;;;;13.57;4.43;;;30.10;90.20;;;;;;5054456;28;20056;-72
2022/05/09 09:53:51;;;;;;;12.32;5.40;;;29.30;89.10;;;;;;5059086;28;20514;-71
2022/05/09 09:56:55;;;;;;;15.57;4.38;;;29.60;89.20;;;;;;5052291;28;20044;-71
2022/05/09 10:00:35;;;;;;;16.63;3.95;;;29.00;89.40;;;;;;5064119;28;20486;-72
2022/05/09 10:03:48;;;;;;;12.70;4.30;;;30.50;88.90;;;;;;5047057;28;20486;-73
2022/05/09 10:06:59;;;;;;;8.82;3.92;;;33.50;86.40;;;;;;5048751;28;20044;-73
2022/05/09 10:10:15;;;;;;;8.38;4.03;;;33.40;81.80;;;;;;5055882;28;20040;-72
2022/05/09 10:13:21;;;;;;;9.55;3.85;;;32.30;82.80;;;;;;5052341;28;20044;-71
2022/05/09 10:16:45;;;;;;;11.18;4.22;;;32.10;83.60;;;;;;5050053;28;20043;-70
2022/05/09 10:19:51;;;;;;;7.15;4.10;;;31.00;84.50;;;;;;5050421;28;20411;-70
2022/05/09 10:26:53;;;;;;;14.48;4.22;;;30.60;85.50;;;;;;5041253;28;20048;-70
2022/05/09 10:30:00;;;;;;;11.20;4.05;;;30.00;83.60;;;;;;5053300;28;20091;-72
2022/05/09 10:33:37;;;;;;;10.52;5.03;;;29.40;84.20;;;;;;5062697;28;20059;-70
2022/05/09 10:36:56;;;;;;;11.95;4.25;;;27.80;85.60;;;;;;5058838;28;20036;-71
2022/05/09 10:40:06;;;;;;;13.48;4.45;;;28.10;86.90;;;;;;5035505;28;20321;-70
2022/05/09 10:43:22;;;;;;;9.50;3.78;;;29.80;84.60;;;;;;5050902;28;20036;-70
2022/05/09 10:46:50;;;;;;;8.80;4.03;;;31.10;84.00;;;;;;5054205;28;20043;-72
2022/05/09 10:50:05;;;;;;;13.77;4.68;;;33.10;83.60;;;;;;5053091;28;20044;-72
2022/05/09 10:53:43;;;;;;;10.05;3.85;;;33.60;81.60;;;;;;5052651;28;20052;-72
2022/05/09 10:57:15;;;;;;;9.05;3.90;;;34.50;80.40;;;;;;5055240;28;20491;-72
2022/05/09 11:00:24;;;;;;;8.57;3.03;;;36.60;76.70;;;;;;5051114;28;20128;-72
2022/05/09 11:03:35;;;;;;;10.70;3.80;;;37.50;74.90;;;;;;5050861;28;20475;-71
2022/05/09 11:07:06;;;;;;;6.70;3.15;;;37.70;71.40;;;;;;5045609;28;20970;-71
2022/05/09 11:10:37;;;;;;;7.88;3.15;;;37.80;70.70;;;;;;5047365;28;20376;-72
2022/05/09 11:14:19;;;;;;;12.40;3.60;;;36.30;71.10;;;;;;5042927;28;20514;-72
2022/05/09 11:17:35;;;;;;;8.85;4.30;;;34.40;72.70;;;;;;5053006;28;20040;-71
2022/05/09 11:20:50;;;;;;;7.72;3.53;;;33.00;73.10;;;;;;5048446;28;20044;-73
2022/05/09 11:24:10;;;;;;;13.20;4.05;;;32.00;72.30;;;;;;5046652;28;20044;-72
2022/05/09 11:27:17;;;;;;;9.88;4.40;;;29.80;77.20;;;;;;5045847;28;20048;-73
2022/05/09 11:30:22;;;;;;;11.05;4.47;;;28.70;76.20;;;;;;5052750;28;20399;-73
2022/05/09 11:33:51;;;;;;;6.88;4.00;;;28.30;78.80;;;;;;5048494;28;20064;-72
2022/05/09 11:37:20;;;;;;;7.25;4.18;;;29.90;78.50;;;;;;5046019;28;20040;-72
2022/05/09 11:41:01;;;;;;;6.65;3.97;;;30.60;79.10;;;;;;5042969;28;20052;-72
2022/05/09 11:44:23;;;;;;;9.25;3.95;;;28.30;78.90;;;;;;5048390;28;20040;-73
2022/05/09 11:48:01;;;;;;;13.07;4.38;;;26.40;81.40;;;;;;5046234;28;20052;-72
2022/05/09 11:51:16;;;;;;;8.10;3.90;;;26.90;80.70;;;;;;5042966;28;20048;-72
2022/05/09 11:54:29;;;;;;;8.57;3.30;;;29.50;78.40;;;;;;5036495;28;20052;-71
2022/05/09 11:57:40;;;;;;;9.75;3.85;;;28.60;75.90;;;;;;5042813;28;20052;-72
2022/05/09 12:00:50;;;;;;;10.88;4.20;;;27.00;79.60;;;;;;5047680;28;20048;-71
2022/05/09 12:03:54;;;;;;;11.63;5.35;;;26.10;80.30;;;;;;5048008;28;20040;-71
2022/05/09 12:06:58;;;;;;;12.00;5.30;;;25.90;82.20;;;;;;5049639;28;20044;-71
2022/05/09 12:10:18;;;;;;;12.77;5.65;;;25.60;84.50;;;;;;5040166;28;20362;-72
2022/05/09 12:13:42;;;;;;;13.60;4.45;;;26.10;85.70;;;;;;5047583;28;20036;-73
2022/05/09 12:16:52;;;;;;;8.90;4.00;;;28.40;84.60;;;;;;5050349;28;20040;-72
2022/05/09 12:19:57;;;;;;;9.27;4.10;;;29.30;82.00;;;;;;5046425;28;20503;-73
2022/05/09 12:23:09;;;;;;;11.30;4.43;;;28.60;79.40;;;;;;5049356;28;20051;-72
2022/05/09 12:26:31;;;;;;;12.43;4.55;;;27.20;82.80;;;;;;5046535;28;20039;-72
2022/05/09 12:29:49;;;;;;;16.75;4.85;;;25.60;83.40;;;;;;5048515;28;20048;-72
2022/05/09 12:32:53;;;;;;;10.30;4.35;;;24.90;84.80;;;;;;5046278;28;20036;-71
2022/05/09 12:36:01;;;;;;;11.98;4.68;;;25.20;86.60;;;;;;5051140;28;20068;-71
2022/05/09 12:39:17;;;;;;;19.58;4.80;;;25.90;85.30;;;;;;5049845;28;20048;-73
2022/05/09 12:42:27;;;;;;;11.93;4.32;;;28.20;85.10;;;;;;5044666;28;20036;-71
2022/05/09 12:45:31;;;;;;;9.18;4.40;;;30.30;79.50;;;;;;5047530;28;20581;-75
2022/05/09 12:48:38;;;;;;;11.48;3.88;;;30.20;77.70;;;;;;5035939;28;20051;-72
2022/05/09 12:52:03;;;;;;;9.00;3.92;;;30.00;76.80;;;;;;5042795;28;20047;-73
2022/05/09 12:59:07;;;;;;;10.32;4.38;;;29.40;79.40;;;;;;4967950;28;20061;-73
2022/05/09 13:02:20;;;;;;;9.00;4.05;;;29.30;77.20;;;;;;4968079;28;20042;-73
2022/05/09 13:05:41;;;;;;;11.75;3.60;;;28.60;77.50;;;;;;5044276;28;20562;-72
2022/05/09 13:08:44;;;;;;;10.02;3.65;;;29.10;76.90;;;;;;5049556;28;20036;-73
2022/05/09 13:12:04;;;;;;;12.05;4.30;;;29.00;79.60;;;;;;5045839;28;20044;-72
2022/05/09 13:15:16;;;;;;;8.82;4.28;;;28.60;80.40;;;;;;5054605;28;20515;-72
2022/05/09 13:18:25;;;;;;;14.40;4.43;;;28.10;80.50;;;;;;5050900;28;20040;-73
2022/05/09 13:21:37;;;;;;;12.25;4.30;;;26.80;81.50;;;;;;5053724;28;20043;-71
2022/05/09 13:24:43;;;;;;;10.93;4.93;;;26.40;85.00;;;;;;5040415;28;20108;-73
2022/05/09 13:27:55;;;;;;;12.18;4.63;;;26.40;85.70;;;;;;5055942;28;20047;-72
2022/05/09 13:30:59;;;;;;;16.90;4.57;;;26.80;85.20;;;;;;5057274;28;20048;-70
2022/05/09 13:34:19;;;;;;;8.68;4.50;;;26.90;85.50;;;;;;5049435;28;20518;-73
2022/05/09 13:37:32;;;;;;;7.40;4.22;;;27.20;85.80;;;;;;5054276;28;20071;-70
2022/05/09 13:40:35;;;;;;;9.88;4.85;;;27.80;83.40;;;;;;5046051;28;20080;-72
2022/05/09 13:43:45;;;;;;;12.32;4.13;;;25.70;85.70;;;;;;5048517;28;20498;-72
2022/05/09 13:47:15;;;;;;;11.55;5.47;;;26.20;87.60;;;;;;5053412;28;20044;-72
2022/05/09 13:50:22;;;;;;;13.70;4.50;;;27.20;84.90;;;;;;5045969;28;20492;-72
2022/05/09 13:53:32;;;;;;;9.75;4.88;;;27.00;85.80;;;;;;5041790;28;20047;-72
2022/05/09 13:56:40;;;;;;;12.73;5.25;;;25.40;87.10;;;;;;5048075;28;20056;-72
2022/05/09 13:59:49;;;;;;;10.35;4.97;;;24.60;90.20;;;;;;5039248;28;20045;-72
2022/05/09 14:02:57;;;;;;;11.38;5.40;;;25.30;91.20;;;;;;5046323;28;20040;-73
2022/05/09 14:06:07;;;;;;;12.85;5.07;;;25.40;90.40;;;;;;5058927;28;20060;-73
2022/05/09 14:09:27;;;;;;;13.82;4.80;;;24.40;91.00;;;;;;5048180;28;20051;-72
2022/05/09 14:12:32;;;;;;;12.25;4.93;;;24.20;90.60;;;;;;5037806;28;20372;-72
2022/05/09 14:15:37;;;;;;;10.70;5.25;;;23.90;90.70;;;;;;5042857;28;20063;-73
2022/05/09 14:18:46;;;;;;;16.52;5.22;;;24.00;91.40;;;;;;5050031;28;20044;-73
2022/05/09 14:21:57;;;;;;;13.90;4.90;;;23.80;90.40;;;;;;5046232;28;20506;-72
2022/05/09 14:32:10;;;;;;;10.93;4.80;;;22.90;92.10;;;;;;5048838;28;20376;-72
2022/05/09 14:35:34;;;;;;;8.95;4.53;;;22.90;90.70;;;;;;5045263;28;20360;-72
2022/05/09 14:38:40;;;;;;;16.83;4.78;;;23.00;91.90;;;;;;5048285;28;20040;-72
2022/05/09 14:41:44;;;;;;;9.57;5.20;;;22.80;93.20;;;;;;5047498;28;20048;-73
2022/05/09 14:45:10;;;;;;;8.07;4.55;;;23.20;93.30;;;;;;5029251;28;20036;-72
2022/05/09 14:48:21;;;;;;;8.70;4.80;;;23.60;93.60;;;;;;5031065;28;20044;-73
2022/05/09 14:51:26;;;;;;;10.30;4.82;;;23.70;93.10;;;;;;5047018;28;20039;-72
2022/05/09 14:54:43;;;;;;;9.98;4.90;;;24.10;93.40;;;;;;5041954;28;20368;-73
2022/05/09 14:57:53;;;;;;;9.75;5.25;;;23.70;93.40;;;;;;5046935;28;20498;-73
2022/05/09 15:01:11;;;;;;;17.33;5.70;;;23.40;95.00;;;;;;5038555;28;20036;-73
2022/05/09 15:04:16;;;;;;;12.75;5.15;;;23.50;95.50;;;;;;5043829;28;20044;-73
2022/05/09 15:07:20;;;;;;;11.88;4.32;;;23.70;93.50;;;;;;5043500;28;20036;-72
2022/05/09 15:10:26;;;;;;;9.82;4.82;;;23.90;92.40;;;;;;5044353;28;20040;-72
2022/05/09 15:13:34;;;;;;;10.77;5.03;;;24.20;92.00;;;;;;5043247;28;20060;-74
2022/05/09 15:16:45;;;;;;;10.23;5.20;;;23.90;92.20;;;;;;5044968;28;20036;-73
2022/05/09 15:19:49;;;;;;;10.07;4.80;;;24.10;93.70;;;;;;5042496;28;20506;-71
2022/05/09 15:22:56;;;;;;;9.93;4.55;;;24.20;94.10;;;;;;5046217;28;20059;-73
2022/05/09 15:26:01;;;;;;;9.00;5.20;;;24.60;94.80;;;;;;5045336;28;20040;-73
2022/05/09 15:29:07;;;;;;;16.13;5.80;;;24.80;94.00;;;;;;5044206;28;20048;-73
2022/05/09 15:32:16;;;;;;;11.98;5.78;;;24.90;92.60;;;;;;5049619;28;20056;-73
2022/05/09 15:35:21;;;;;;;11.02;5.75;;;24.90;92.50;;;;;;5038710;28;20040;-73
2022/05/09 15:38:26;;;;;;;14.20;5.45;;;24.70;92.00;;;;;;5044305;28;20905;-73
2022/05/09 15:41:30;;;;;;;11.70;5.85;;;24.70;91.50;;;;;;5040302;28;20391;-71
2022/05/09 15:44:35;;;;;;;9.63;4.50;;;24.80;91.00;;;;;;5048492;28;20051;-73
2022/05/09 15:47:46;;;;;;;9.02;4.38;;;24.50;90.10;;;;;;5045498;28;20044;-72
2022/05/09 15:50:58;;;;;;;12.40;5.07;;;24.30;90.80;;;;;;5048509;28;20504;-72
2022/05/09 15:54:02;;;;;;;17.95;6.07;;;24.50;91.60;;;;;;5043327;28;20068;-72
2022/05/09 15:57:07;;;;;;;10.70;5.60;;;24.80;91.90;;;;;;5050729;28;20057;-72
2022/05/09 16:00:14;;;;;;;7.53;4.45;;;25.00;91.50;;;;;;5033723;28;20519;-72
2022/05/09 16:03:27;;;;;;;10.55;5.35;;;24.90;91.20;;;;;;5050532;28;20376;-73
2022/05/09 16:13:19;;;;;;;11.93;5.97;;;23.90;91.30;;;;;;5030478;28;20048;-71
2022/05/09 16:16:32;;;;;;;17.17;9.90;;;23.90;92.00;;;;;;5038744;28;20387;-71
2022/05/09 16:19:47;;;;;;;48.78;22.40;;;24.00;92.60;;;;;;5050066;28;20495;-71
2022/05/09 16:22:52;;;;;;;16.63;9.43;;;24.00;93.30;;;;;;5049481;28;20040;-71
2022/05/09 16:26:03;;;;;;;10.13;6.40;;;23.90;93.80;;;;;;5049907;28;20511;-71
2022/05/09 16:29:09;;;;;;;11.82;5.15;;;23.80;93.90;;;;;;5054270;28;20495;-73
2022/05/09 16:32:14;;;;;;;9.85;4.47;;;23.90;92.10;;;;;;5053864;28;20060;-72
2022/05/09 16:35:18;;;;;;;11.88;5.25;;;24.20;91.90;;;;;;5053914;28;20052;-72
2022/05/09 16:38:23;;;;;;;12.18;6.05;;;24.40;93.00;;;;;;5046301;28;20060;-72
2022/05/09 16:41:27;;;;;;;12.18;5.05;;;24.60;93.60;;;;;;5054191;28;20503;-72